sensor_id;sensor_type;location;lat;lon;timestamp;temperature;humidity
53053;DHT22;38934;52.690;6.184;2023-04-29T00:01:33;9.50;99.90
53053;DHT22;38934;52.690;6.184;2023-04-29T00:03:59;9.50;99.90
53053;DHT22;38934;52.690;6.184;2023-04-29T00:06:27;9.50;99.90
53053;DHT22;38934;52.690;6.184;2023-04-29T00:08:56;9.40;99.90
53053;DHT22;38934;52.690;6.184;2023-04-29T00:11:23;9.50;99.90
53053;DHT22;38934;52.690;6.184;2023-04-29T00:13:48;9.50;99.90
53053;DHT22;38934;52.690;6.184;2023-04-29T00:16:22;9.40;99.90
53053;DHT22;38934;52.690;6.184;2023-04-29T00:18:52;9.40;99.90
53053;DHT22;38934;52.690;6.184;2023-04-29T00:21:36;9.60;99.90
53053;DHT22;38934;52.690;6.184;2023-04-29T00:24:15;9.40;99.90
53053;DHT22;38934;52.690;6.184;2023-04-29T00:26:45;9.40;99.90
53053;DHT22;38934;52.690;6.184;2023-04-29T00:29:15;9.40;99.90
53053;DHT22;38934;52.690;6.184;2023-04-29T00:31:44;9.40;99.90
53053;DHT22;38934;52.690;6.184;2023-04-29T00:34:11;9.40;99.90
53053;DHT22;38934;52.690;6.184;2023-04-29T00:36:39;9.60;99.90
53053;DHT22;38934;52.690;6.184;2023-04-29T00:39:11;9.40;99.90
53053;DHT22;38934;52.690;6.184;2023-04-29T00:41:38;9.40;99.90
53053;DHT22;38934;52.690;6.184;2023-04-29T00:44:14;9.40;99.90
53053;DHT22;38934;52.690;6.184;2023-04-29T00:46:55;9.40;99.90
53053;DHT22;38934;52.690;6.184;2023-04-29T00:49:36;9.40;99.90
53053;DHT22;38934;52.690;6.184;2023-04-29T00:52:19;9.40;99.90
53053;DHT22;38934;52.690;6.184;2023-04-29T00:54:47;9.40;99.90
53053;DHT22;38934;52.690;6.184;2023-04-29T00:57:19;9.40;99.90
53053;DHT22;38934;52.690;6.184;2023-04-29T00:59:47;9.30;99.90
53053;DHT22;38934;52.690;6.184;2023-04-29T01:02:28;9.40;99.90
53053;DHT22;38934;52.690;6.184;2023-04-29T01:04:54;9.40;99.90
53053;DHT22;38934;52.690;6.184;2023-04-29T01:07:30;9.30;99.90
53053;DHT22;38934;52.690;6.184;2023-04-29T01:13:32;9.30;99.90
53053;DHT22;38934;52.690;6.184;2023-04-29T01:16:03;9.30;99.90
53053;DHT22;38934;52.690;6.184;2023-04-29T01:18:40;9.30;99.90
53053;DHT22;38934;52.690;6.184;2023-04-29T01:21:06;9.30;99.90
53053;DHT22;38934;52.690;6.184;2023-04-29T01:23:35;9.30;99.90
53053;DHT22;38934;52.690;6.184;2023-04-29T01:26:12;9.30;99.90
53053;DHT22;38934;52.690;6.184;2023-04-29T01:29:09;9.30;99.90
53053;DHT22;38934;52.690;6.184;2023-04-29T01:31:45;9.20;99.90
53053;DHT22;38934;52.690;6.184;2023-04-29T01:34:29;9.40;99.90
53053;DHT22;38934;52.690;6.184;2023-04-29T01:37:13;9.20;99.90
53053;DHT22;38934;52.690;6.184;2023-04-29T01:39:51;9.20;99.90
53053;DHT22;38934;52.690;6.184;2023-04-29T01:42:32;9.20;99.90
53053;DHT22;38934;52.690;6.184;2023-04-29T01:45:05;9.20;99.90
53053;DHT22;38934;52.690;6.184;2023-04-29T01:47:34;9.20;99.90
53053;DHT22;38934;52.690;6.184;2023-04-29T01:50:00;9.20;99.90
53053;DHT22;38934;52.690;6.184;2023-04-29T01:52:27;9.20;99.90
53053;DHT22;38934;52.690;6.184;2023-04-29T01:54:53;9.20;99.90
53053;DHT22;38934;52.690;6.184;2023-04-29T01:57:20;9.20;99.90
53053;DHT22;38934;52.690;6.184;2023-04-29T01:59:45;9.20;99.90
53053;DHT22;38934;52.690;6.184;2023-04-29T02:02:17;9.10;99.90
53053;DHT22;38934;52.690;6.184;2023-04-29T02:04:45;9.90;99.90
53053;DHT22;38934;52.690;6.184;2023-04-29T02:07:12;9.10;99.90
53053;DHT22;38934;52.690;6.184;2023-04-29T02:09:42;9.20;99.90
53053;DHT22;38934;52.690;6.184;2023-04-29T02:12:09;9.10;99.90
53053;DHT22;38934;52.690;6.184;2023-04-29T02:14:35;9.10;99.90
53053;DHT22;38934;52.690;6.184;2023-04-29T02:17:00;9.10;99.90
53053;DHT22;38934;52.690;6.184;2023-04-29T02:19:26;9.10;99.90
53053;DHT22;38934;52.690;6.184;2023-04-29T02:21:52;9.10;99.90
53053;DHT22;38934;52.690;6.184;2023-04-29T02:24:18;9.10;99.90
53053;DHT22;38934;52.690;6.184;2023-04-29T02:26:44;9.10;99.90
53053;DHT22;38934;52.690;6.184;2023-04-29T02:29:10;9.10;99.90
53053;DHT22;38934;52.690;6.184;2023-04-29T02:31:36;9.10;99.90
53053;DHT22;38934;52.690;6.184;2023-04-29T02:34:02;9.00;99.90
53053;DHT22;38934;52.690;6.184;2023-04-29T02:36:29;9.10;99.90
53053;DHT22;38934;52.690;6.184;2023-04-29T02:38:56;9.80;99.90
53053;DHT22;38934;52.690;6.184;2023-04-29T02:41:22;9.10;99.90
53053;DHT22;38934;52.690;6.184;2023-04-29T02:43:48;9.10;99.90
53053;DHT22;38934;52.690;6.184;2023-04-29T02:46:14;9.00;99.90
53053;DHT22;38934;52.690;6.184;2023-04-29T02:48:41;9.00;99.90
53053;DHT22;38934;52.690;6.184;2023-04-29T02:51:06;9.10;99.90
53053;DHT22;38934;52.690;6.184;2023-04-29T02:53:32;9.00;99.90
53053;DHT22;38934;52.690;6.184;2023-04-29T02:55:58;9.00;99.90
53053;DHT22;38934;52.690;6.184;2023-04-29T02:58:26;9.00;99.90
53053;DHT22;38934;52.690;6.184;2023-04-29T03:00:51;9.00;99.90
53053;DHT22;38934;52.690;6.184;2023-04-29T03:03:17;9.00;99.90
53053;DHT22;38934;52.690;6.184;2023-04-29T03:05:43;8.90;99.90
53053;DHT22;38934;52.690;6.184;2023-04-29T03:08:09;9.00;99.90
53053;DHT22;38934;52.690;6.184;2023-04-29T03:10:35;9.30;99.90
53053;DHT22;38934;52.690;6.184;2023-04-29T03:13:01;8.90;99.90
53053;DHT22;38934;52.690;6.184;2023-04-29T03:15:27;8.90;99.90
53053;DHT22;38934;52.690;6.184;2023-04-29T03:17:52;8.90;99.90
53053;DHT22;38934;52.690;6.184;2023-04-29T03:20:19;9.00;99.90
53053;DHT22;38934;52.690;6.184;2023-04-29T03:22:45;8.90;99.90
53053;DHT22;38934;52.690;6.184;2023-04-29T03:25:11;8.90;99.90
53053;DHT22;38934;52.690;6.184;2023-04-29T03:27:37;8.90;99.90
53053;DHT22;38934;52.690;6.184;2023-04-29T03:30:05;8.80;99.90
53053;DHT22;38934;52.690;6.184;2023-04-29T03:32:31;8.80;99.90
53053;DHT22;38934;52.690;6.184;2023-04-29T03:34:57;8.80;99.90
53053;DHT22;38934;52.690;6.184;2023-04-29T03:37:22;8.70;99.90
53053;DHT22;38934;52.690;6.184;2023-04-29T03:39:48;8.70;99.90
53053;DHT22;38934;52.690;6.184;2023-04-29T03:42:14;8.70;99.90
53053;DHT22;38934;52.690;6.184;2023-04-29T03:44:40;8.70;99.90
53053;DHT22;38934;52.690;6.184;2023-04-29T03:47:06;8.60;99.90
53053;DHT22;38934;52.690;6.184;2023-04-29T03:49:33;8.70;99.90
53053;DHT22;38934;52.690;6.184;2023-04-29T03:51:59;8.70;99.90
53053;DHT22;38934;52.690;6.184;2023-04-29T03:54:25;8.60;99.90
53053;DHT22;38934;52.690;6.184;2023-04-29T03:56:51;8.60;99.90
53053;DHT22;38934;52.690;6.184;2023-04-29T03:59:21;8.60;99.90
53053;DHT22;38934;52.690;6.184;2023-04-29T04:01:46;8.60;99.90
53053;DHT22;38934;52.690;6.184;2023-04-29T04:04:12;8.60;99.90
53053;DHT22;38934;52.690;6.184;2023-04-29T04:06:38;8.60;99.90
53053;DHT22;38934;52.690;6.184;2023-04-29T04:09:05;8.60;99.90
53053;DHT22;38934;52.690;6.184;2023-04-29T04:11:38;8.60;99.90
53053;DHT22;38934;52.690;6.184;2023-04-29T04:14:04;8.60;99.90
53053;DHT22;38934;52.690;6.184;2023-04-29T04:16:30;8.60;99.90
53053;DHT22;38934;52.690;6.184;2023-04-29T04:18:56;8.60;99.90
53053;DHT22;38934;52.690;6.184;2023-04-29T04:21:22;8.60;99.90
53053;DHT22;38934;52.690;6.184;2023-04-29T04:23:48;8.60;99.90
53053;DHT22;38934;52.690;6.184;2023-04-29T04:26:14;8.90;99.90
53053;DHT22;38934;52.690;6.184;2023-04-29T04:28:39;8.60;99.90
53053;DHT22;38934;52.690;6.184;2023-04-29T04:31:05;8.60;99.90
53053;DHT22;38934;52.690;6.184;2023-04-29T04:33:31;8.60;99.90
53053;DHT22;38934;52.690;6.184;2023-04-29T04:35:57;8.90;99.90
53053;DHT22;38934;52.690;6.184;2023-04-29T04:38:23;8.60;99.90
53053;DHT22;38934;52.690;6.184;2023-04-29T04:40:49;8.80;99.90
53053;DHT22;38934;52.690;6.184;2023-04-29T04:43:15;8.60;99.90
53053;DHT22;38934;52.690;6.184;2023-04-29T04:45:42;8.60;99.90
53053;DHT22;38934;52.690;6.184;2023-04-29T04:48:07;8.60;99.90
53053;DHT22;38934;52.690;6.184;2023-04-29T04:50:33;8.60;99.90
53053;DHT22;38934;52.690;6.184;2023-04-29T04:52:59;8.60;99.90
53053;DHT22;38934;52.690;6.184;2023-04-29T04:55:25;8.70;99.90
53053;DHT22;38934;52.690;6.184;2023-04-29T04:57:51;8.60;99.90
53053;DHT22;38934;52.690;6.184;2023-04-29T05:00:17;8.70;99.90
53053;DHT22;38934;52.690;6.184;2023-04-29T05:02:42;8.60;99.90
53053;DHT22;38934;52.690;6.184;2023-04-29T05:05:09;8.70;99.90
53053;DHT22;38934;52.690;6.184;2023-04-29T05:07:34;8.70;99.90
53053;DHT22;38934;52.690;6.184;2023-04-29T05:10:02;8.90;99.90
53053;DHT22;38934;52.690;6.184;2023-04-29T05:12:28;8.70;99.90
53053;DHT22;38934;52.690;6.184;2023-04-29T05:14:59;8.70;99.90
53053;DHT22;38934;52.690;6.184;2023-04-29T05:17:25;8.80;99.90
53053;DHT22;38934;52.690;6.184;2023-04-29T05:19:51;8.80;99.90
53053;DHT22;38934;52.690;6.184;2023-04-29T05:22:17;8.80;99.90
53053;DHT22;38934;52.690;6.184;2023-04-29T05:24:44;8.80;99.90
53053;DHT22;38934;52.690;6.184;2023-04-29T05:27:16;8.80;99.90
53053;DHT22;38934;52.690;6.184;2023-04-29T05:29:41;8.80;99.90
53053;DHT22;38934;52.690;6.184;2023-04-29T05:32:07;8.80;99.90
53053;DHT22;38934;52.690;6.184;2023-04-29T05:34:34;8.80;99.90
53053;DHT22;38934;52.690;6.184;2023-04-29T05:37:00;8.80;99.90
53053;DHT22;38934;52.690;6.184;2023-04-29T05:39:25;8.90;99.90
53053;DHT22;38934;52.690;6.184;2023-04-29T05:41:52;8.90;99.90
53053;DHT22;38934;52.690;6.184;2023-04-29T05:44:18;9.40;99.90
53053;DHT22;38934;52.690;6.184;2023-04-29T05:46:44;9.00;99.90
53053;DHT22;38934;52.690;6.184;2023-04-29T05:49:10;8.90;99.90
53053;DHT22;38934;52.690;6.184;2023-04-29T05:51:36;8.90;99.90
53053;DHT22;38934;52.690;6.184;2023-04-29T05:54:03;9.00;99.90
53053;DHT22;38934;52.690;6.184;2023-04-29T05:56:28;9.00;99.90
53053;DHT22;38934;52.690;6.184;2023-04-29T05:58:55;9.00;99.90
53053;DHT22;38934;52.690;6.184;2023-04-29T06:01:21;9.10;99.90
53053;DHT22;38934;52.690;6.184;2023-04-29T06:03:47;9.10;99.90
53053;DHT22;38934;52.690;6.184;2023-04-29T06:06:19;9.20;99.90
53053;DHT22;38934;52.690;6.184;2023-04-29T06:08:44;9.20;99.90
53053;DHT22;38934;52.690;6.184;2023-04-29T06:11:10;9.30;99.90
53053;DHT22;38934;52.690;6.184;2023-04-29T06:13:42;9.30;99.90
53053;DHT22;38934;52.690;6.184;2023-04-29T06:16:07;9.40;99.90
53053;DHT22;38934;52.690;6.184;2023-04-29T06:18:33;9.40;99.90
53053;DHT22;38934;52.690;6.184;2023-04-29T06:20:58;9.50;99.90
53053;DHT22;38934;52.690;6.184;2023-04-29T06:23:24;9.50;99.90
53053;DHT22;38934;52.690;6.184;2023-04-29T06:25:51;9.60;99.90
53053;DHT22;38934;52.690;6.184;2023-04-29T06:28:21;9.60;99.90
53053;DHT22;38934;52.690;6.184;2023-04-29T06:30:47;9.60;99.90
53053;DHT22;38934;52.690;6.184;2023-04-29T06:33:14;9.70;99.90
53053;DHT22;38934;52.690;6.184;2023-04-29T06:35:40;9.80;99.90
53053;DHT22;38934;52.690;6.184;2023-04-29T06:38:06;9.90;99.90
53053;DHT22;38934;52.690;6.184;2023-04-29T06:40:35;10.00;99.90
53053;DHT22;38934;52.690;6.184;2023-04-29T06:43:01;10.00;99.90
53053;DHT22;38934;52.690;6.184;2023-04-29T06:45:28;10.00;99.90
53053;DHT22;38934;52.690;6.184;2023-04-29T06:47:54;10.10;99.90
53053;DHT22;38934;52.690;6.184;2023-04-29T06:50:20;10.30;99.90
53053;DHT22;38934;52.690;6.184;2023-04-29T06:52:45;10.40;99.90
53053;DHT22;38934;52.690;6.184;2023-04-29T06:55:11;10.40;99.90
53053;DHT22;38934;52.690;6.184;2023-04-29T06:57:36;10.40;99.90
53053;DHT22;38934;52.690;6.184;2023-04-29T07:00:03;10.50;99.90
53053;DHT22;38934;52.690;6.184;2023-04-29T07:02:30;10.50;99.90
53053;DHT22;38934;52.690;6.184;2023-04-29T07:04:56;10.50;99.90
53053;DHT22;38934;52.690;6.184;2023-04-29T07:07:22;10.50;99.90
53053;DHT22;38934;52.690;6.184;2023-04-29T07:09:50;10.60;99.90
53053;DHT22;38934;52.690;6.184;2023-04-29T07:12:17;10.60;99.90
53053;DHT22;38934;52.690;6.184;2023-04-29T07:14:43;10.60;99.90
53053;DHT22;38934;52.690;6.184;2023-04-29T07:17:09;10.70;99.90
53053;DHT22;38934;52.690;6.184;2023-04-29T07:19:35;10.70;99.90
53053;DHT22;38934;52.690;6.184;2023-04-29T07:22:01;10.80;99.90
53053;DHT22;38934;52.690;6.184;2023-04-29T07:24:27;10.70;99.90
53053;DHT22;38934;52.690;6.184;2023-04-29T07:26:53;10.80;99.90
53053;DHT22;38934;52.690;6.184;2023-04-29T07:29:19;11.00;99.90
53053;DHT22;38934;52.690;6.184;2023-04-29T07:31:44;10.80;99.90
53053;DHT22;38934;52.690;6.184;2023-04-29T07:34:10;10.80;99.90
53053;DHT22;38934;52.690;6.184;2023-04-29T07:36:36;10.70;99.90
53053;DHT22;38934;52.690;6.184;2023-04-29T07:39:02;10.70;99.90
53053;DHT22;38934;52.690;6.184;2023-04-29T07:41:28;10.70;99.90
53053;DHT22;38934;52.690;6.184;2023-04-29T07:43:53;10.70;99.90
53053;DHT22;38934;52.690;6.184;2023-04-29T07:46:19;10.70;99.90
53053;DHT22;38934;52.690;6.184;2023-04-29T07:48:45;10.70;99.90
53053;DHT22;38934;52.690;6.184;2023-04-29T07:51:15;10.80;99.90
53053;DHT22;38934;52.690;6.184;2023-04-29T07:53:41;10.90;99.90
53053;DHT22;38934;52.690;6.184;2023-04-29T07:56:07;10.90;99.90
53053;DHT22;38934;52.690;6.184;2023-04-29T07:58:33;11.00;99.90
53053;DHT22;38934;52.690;6.184;2023-04-29T08:01:08;11.00;99.90
53053;DHT22;38934;52.690;6.184;2023-04-29T08:03:35;11.00;99.90
53053;DHT22;38934;52.690;6.184;2023-04-29T08:06:04;11.00;99.90
53053;DHT22;38934;52.690;6.184;2023-04-29T08:08:32;11.00;99.90
53053;DHT22;38934;52.690;6.184;2023-04-29T08:10:58;11.10;99.90
53053;DHT22;38934;52.690;6.184;2023-04-29T08:13:24;11.60;99.90
53053;DHT22;38934;52.690;6.184;2023-04-29T08:15:50;11.20;99.90
53053;DHT22;38934;52.690;6.184;2023-04-29T08:18:16;11.30;99.90
53053;DHT22;38934;52.690;6.184;2023-04-29T08:20:42;11.40;99.90
53053;DHT22;38934;52.690;6.184;2023-04-29T08:23:07;11.40;99.90
53053;DHT22;38934;52.690;6.184;2023-04-29T08:25:33;11.50;99.90
53053;DHT22;38934;52.690;6.184;2023-04-29T08:27:59;11.60;99.90
53053;DHT22;38934;52.690;6.184;2023-04-29T08:30:24;11.70;99.90
53053;DHT22;38934;52.690;6.184;2023-04-29T08:32:50;11.70;99.90
53053;DHT22;38934;52.690;6.184;2023-04-29T08:35:16;11.80;99.90
53053;DHT22;38934;52.690;6.184;2023-04-29T08:37:42;11.80;99.90
53053;DHT22;38934;52.690;6.184;2023-04-29T08:40:08;11.90;99.90
53053;DHT22;38934;52.690;6.184;2023-04-29T08:42:35;11.90;99.90
53053;DHT22;38934;52.690;6.184;2023-04-29T08:45:02;12.00;99.90
53053;DHT22;38934;52.690;6.184;2023-04-29T08:47:30;12.00;99.90
53053;DHT22;38934;52.690;6.184;2023-04-29T08:49:58;12.10;99.90
53053;DHT22;38934;52.690;6.184;2023-04-29T08:52:26;12.70;99.90
53053;DHT22;38934;52.690;6.184;2023-04-29T08:54:53;12.40;99.90
53053;DHT22;38934;52.690;6.184;2023-04-29T08:57:23;12.60;99.90
53053;DHT22;38934;52.690;6.184;2023-04-29T08:59:52;12.90;99.90
53053;DHT22;38934;52.690;6.184;2023-04-29T09:02:18;13.00;99.90
53053;DHT22;38934;52.690;6.184;2023-04-29T09:04:54;13.20;99.90
53053;DHT22;38934;52.690;6.184;2023-04-29T09:07:23;13.50;99.90
53053;DHT22;38934;52.690;6.184;2023-04-29T09:09:51;13.70;99.90
53053;DHT22;38934;52.690;6.184;2023-04-29T09:12:17;13.90;99.90
53053;DHT22;38934;52.690;6.184;2023-04-29T09:14:43;13.90;99.90
53053;DHT22;38934;52.690;6.184;2023-04-29T09:17:09;13.90;99.90
53053;DHT22;38934;52.690;6.184;2023-04-29T09:19:38;13.80;99.90
53053;DHT22;38934;52.690;6.184;2023-04-29T09:22:10;13.70;99.90
53053;DHT22;38934;52.690;6.184;2023-04-29T09:24:37;14.10;99.90
53053;DHT22;38934;52.690;6.184;2023-04-29T09:27:04;15.30;99.90
53053;DHT22;38934;52.690;6.184;2023-04-29T09:29:30;16.10;99.90
53053;DHT22;38934;52.690;6.184;2023-04-29T09:31:57;15.80;99.90
53053;DHT22;38934;52.690;6.184;2023-04-29T09:34:34;15.20;99.90
53053;DHT22;38934;52.690;6.184;2023-04-29T09:37:02;15.60;99.90
53053;DHT22;38934;52.690;6.184;2023-04-29T09:39:37;16.20;99.90
53053;DHT22;38934;52.690;6.184;2023-04-29T09:42:03;17.00;99.90
53053;DHT22;38934;52.690;6.184;2023-04-29T09:44:33;17.70;99.90
53053;DHT22;38934;52.690;6.184;2023-04-29T09:47:05;18.30;99.90
53053;DHT22;38934;52.690;6.184;2023-04-29T09:52:06;18.20;99.90
53053;DHT22;38934;52.690;6.184;2023-04-29T09:54:34;17.90;99.90
53053;DHT22;38934;52.690;6.184;2023-04-29T09:57:08;17.30;99.90
53053;DHT22;38934;52.690;6.184;2023-04-29T09:59:36;16.50;99.90
53053;DHT22;38934;52.690;6.184;2023-04-29T10:02:23;16.30;99.90
53053;DHT22;38934;52.690;6.184;2023-04-29T10:04:53;15.40;99.90
53053;DHT22;38934;52.690;6.184;2023-04-29T10:07:22;15.10;99.90
53053;DHT22;38934;52.690;6.184;2023-04-29T10:09:48;14.80;99.90
53053;DHT22;38934;52.690;6.184;2023-04-29T10:12:18;14.50;99.90
53053;DHT22;38934;52.690;6.184;2023-04-29T10:15:02;14.60;99.90
53053;DHT22;38934;52.690;6.184;2023-04-29T10:20:21;15.20;99.90
53053;DHT22;38934;52.690;6.184;2023-04-29T10:22:49;15.10;99.90
53053;DHT22;38934;52.690;6.184;2023-04-29T10:25:17;15.20;99.90
53053;DHT22;38934;52.690;6.184;2023-04-29T10:27:44;15.50;99.90
53053;DHT22;38934;52.690;6.184;2023-04-29T10:30:15;15.50;99.90
53053;DHT22;38934;52.690;6.184;2023-04-29T10:32:46;15.70;99.90
53053;DHT22;38934;52.690;6.184;2023-04-29T10:35:15;15.60;99.90
53053;DHT22;38934;52.690;6.184;2023-04-29T10:37:45;15.70;99.90
53053;DHT22;38934;52.690;6.184;2023-04-29T10:42:48;15.60;99.90
53053;DHT22;38934;52.690;6.184;2023-04-29T10:45:31;15.70;99.90
53053;DHT22;38934;52.690;6.184;2023-04-29T10:48:09;15.80;99.90
53053;DHT22;38934;52.690;6.184;2023-04-29T10:53:15;16.20;99.90
53053;DHT22;38934;52.690;6.184;2023-04-29T10:55:42;16.30;99.90
53053;DHT22;38934;52.690;6.184;2023-04-29T10:58:37;16.30;99.90
53053;DHT22;38934;52.690;6.184;2023-04-29T11:01:04;16.40;99.90
53053;DHT22;38934;52.690;6.184;2023-04-29T11:03:46;16.50;99.90
53053;DHT22;38934;52.690;6.184;2023-04-29T11:06:13;16.50;99.90
53053;DHT22;38934;52.690;6.184;2023-04-29T11:08:39;16.40;99.90
53053;DHT22;38934;52.690;6.184;2023-04-29T11:11:05;16.30;99.90
53053;DHT22;38934;52.690;6.184;2023-04-29T11:13:32;16.20;99.90
53053;DHT22;38934;52.690;6.184;2023-04-29T11:16:08;16.30;99.90
53053;DHT22;38934;52.690;6.184;2023-04-29T11:18:36;16.20;99.90
53053;DHT22;38934;52.690;6.184;2023-04-29T11:21:24;16.40;99.90
53053;DHT22;38934;52.690;6.184;2023-04-29T11:23:51;16.00;99.90
53053;DHT22;38934;52.690;6.184;2023-04-29T11:26:20;16.00;99.90
53053;DHT22;38934;52.690;6.184;2023-04-29T11:28:46;16.00;99.90
53053;DHT22;38934;52.690;6.184;2023-04-29T11:31:12;16.00;99.90
53053;DHT22;38934;52.690;6.184;2023-04-29T11:33:38;16.20;99.90
53053;DHT22;38934;52.690;6.184;2023-04-29T11:36:04;16.20;99.90
53053;DHT22;38934;52.690;6.184;2023-04-29T11:38:30;16.00;99.90
53053;DHT22;38934;52.690;6.184;2023-04-29T11:40:58;16.10;99.90
53053;DHT22;38934;52.690;6.184;2023-04-29T11:43:24;16.10;99.90
53053;DHT22;38934;52.690;6.184;2023-04-29T11:45:51;16.00;99.90
53053;DHT22;38934;52.690;6.184;2023-04-29T11:48:24;15.90;99.90
53053;DHT22;38934;52.690;6.184;2023-04-29T11:50:52;15.90;99.90
53053;DHT22;38934;52.690;6.184;2023-04-29T11:53:20;15.90;99.90
53053;DHT22;38934;52.690;6.184;2023-04-29T11:55:47;15.80;99.90
53053;DHT22;38934;52.690;6.184;2023-04-29T11:58:16;15.70;99.90
53053;DHT22;38934;52.690;6.184;2023-04-29T12:00:42;15.70;99.90
53053;DHT22;38934;52.690;6.184;2023-04-29T12:03:20;15.70;99.90
53053;DHT22;38934;52.690;6.184;2023-04-29T12:05:54;15.80;99.90
53053;DHT22;38934;52.690;6.184;2023-04-29T12:08:24;15.70;99.90
53053;DHT22;38934;52.690;6.184;2023-04-29T12:10:57;15.70;99.90
53053;DHT22;38934;52.690;6.184;2023-04-29T12:13:27;15.80;99.90
53053;DHT22;38934;52.690;6.184;2023-04-29T12:15:54;15.90;99.90
53053;DHT22;38934;52.690;6.184;2023-04-29T12:18:21;15.90;99.90
53053;DHT22;38934;52.690;6.184;2023-04-29T12:20:49;16.10;99.90
53053;DHT22;38934;52.690;6.184;2023-04-29T12:23:19;16.20;99.90
53053;DHT22;38934;52.690;6.184;2023-04-29T12:25:53;16.00;99.90
53053;DHT22;38934;52.690;6.184;2023-04-29T12:28:20;16.00;99.90
53053;DHT22;38934;52.690;6.184;2023-04-29T12:30:46;16.00;99.90
53053;DHT22;38934;52.690;6.184;2023-04-29T12:33:20;16.10;99.90
53053;DHT22;38934;52.690;6.184;2023-04-29T12:35:53;16.30;99.90
53053;DHT22;38934;52.690;6.184;2023-04-29T12:38:24;16.20;99.90
53053;DHT22;38934;52.690;6.184;2023-04-29T12:40:54;16.00;99.90
53053;DHT22;38934;52.690;6.184;2023-04-29T12:43:41;15.70;99.90
53053;DHT22;38934;52.690;6.184;2023-04-29T12:46:09;15.70;99.90
53053;DHT22;38934;52.690;6.184;2023-04-29T12:48:38;15.70;99.90
53053;DHT22;38934;52.690;6.184;2023-04-29T12:51:11;15.80;99.90
53053;DHT22;38934;52.690;6.184;2023-04-29T12:53:37;16.10;99.90
53053;DHT22;38934;52.690;6.184;2023-04-29T12:56:04;15.60;99.90
53053;DHT22;38934;52.690;6.184;2023-04-29T12:58:30;15.50;99.90
53053;DHT22;38934;52.690;6.184;2023-04-29T13:00:57;15.70;99.90
53053;DHT22;38934;52.690;6.184;2023-04-29T13:03:23;15.80;99.90
53053;DHT22;38934;52.690;6.184;2023-04-29T13:05:49;15.90;99.90
53053;DHT22;38934;52.690;6.184;2023-04-29T13:08:18;15.90;99.90
53053;DHT22;38934;52.690;6.184;2023-04-29T13:10:44;16.00;99.90
53053;DHT22;38934;52.690;6.184;2023-04-29T13:13:10;15.90;99.90
53053;DHT22;38934;52.690;6.184;2023-04-29T13:15:36;15.90;99.90
53053;DHT22;38934;52.690;6.184;2023-04-29T13:18:05;15.90;99.90
53053;DHT22;38934;52.690;6.184;2023-04-29T13:20:31;16.10;99.90
53053;DHT22;38934;52.690;6.184;2023-04-29T13:22:58;15.80;99.90
53053;DHT22;38934;52.690;6.184;2023-04-29T13:25:24;15.80;99.90
53053;DHT22;38934;52.690;6.184;2023-04-29T13:27:50;15.70;99.90
53053;DHT22;38934;52.690;6.184;2023-04-29T13:30:16;15.70;99.90
53053;DHT22;38934;52.690;6.184;2023-04-29T13:32:41;15.70;99.90
53053;DHT22;38934;52.690;6.184;2023-04-29T13:35:07;15.70;99.50
53053;DHT22;38934;52.690;6.184;2023-04-29T13:37:33;15.70;99.90
53053;DHT22;38934;52.690;6.184;2023-04-29T13:39:59;15.70;99.90
53053;DHT22;38934;52.690;6.184;2023-04-29T13:42:25;15.70;99.90
53053;DHT22;38934;52.690;6.184;2023-04-29T13:44:51;15.90;99.90
53053;DHT22;38934;52.690;6.184;2023-04-29T13:47:18;16.10;99.90
53053;DHT22;38934;52.690;6.184;2023-04-29T13:49:46;15.80;99.90
53053;DHT22;38934;52.690;6.184;2023-04-29T13:52:14;15.90;99.90
53053;DHT22;38934;52.690;6.184;2023-04-29T13:54:40;16.30;98.00
53053;DHT22;38934;52.690;6.184;2023-04-29T13:57:06;15.90;99.00
53053;DHT22;38934;52.690;6.184;2023-04-29T13:59:33;15.70;99.20
53053;DHT22;38934;52.690;6.184;2023-04-29T14:01:59;15.70;99.60
53053;DHT22;38934;52.690;6.184;2023-04-29T14:04:26;15.70;99.10
53053;DHT22;38934;52.690;6.184;2023-04-29T14:06:53;15.80;97.00
53053;DHT22;38934;52.690;6.184;2023-04-29T14:09:19;15.70;98.90
53053;DHT22;38934;52.690;6.184;2023-04-29T14:11:48;15.70;99.10
53053;DHT22;38934;52.690;6.184;2023-04-29T14:14:14;16.20;98.70
53053;DHT22;38934;52.690;6.184;2023-04-29T14:16:40;15.70;97.50
53053;DHT22;38934;52.690;6.184;2023-04-29T14:19:07;15.70;99.60
53053;DHT22;38934;52.690;6.184;2023-04-29T14:21:33;15.60;99.90
53053;DHT22;38934;52.690;6.184;2023-04-29T14:24:00;15.70;99.90
53053;DHT22;38934;52.690;6.184;2023-04-29T14:26:29;15.70;99.90
53053;DHT22;38934;52.690;6.184;2023-04-29T14:28:58;15.80;99.90
53053;DHT22;38934;52.690;6.184;2023-04-29T14:31:25;15.70;98.80
53053;DHT22;38934;52.690;6.184;2023-04-29T14:33:52;15.60;98.20
53053;DHT22;38934;52.690;6.184;2023-04-29T14:36:19;15.60;98.80
53053;DHT22;38934;52.690;6.184;2023-04-29T14:38:45;15.60;99.50
53053;DHT22;38934;52.690;6.184;2023-04-29T14:41:11;15.60;99.30
53053;DHT22;38934;52.690;6.184;2023-04-29T14:43:37;15.60;99.00
53053;DHT22;38934;52.690;6.184;2023-04-29T14:46:04;15.60;99.90
53053;DHT22;38934;52.690;6.184;2023-04-29T14:48:30;15.60;99.40
53053;DHT22;38934;52.690;6.184;2023-04-29T14:50:59;15.60;99.50
53053;DHT22;38934;52.690;6.184;2023-04-29T14:53:25;15.50;99.90
53053;DHT22;38934;52.690;6.184;2023-04-29T14:55:51;15.50;99.70
53053;DHT22;38934;52.690;6.184;2023-04-29T14:58:16;15.60;99.90
53053;DHT22;38934;52.690;6.184;2023-04-29T15:00:42;15.90;99.90
53053;DHT22;38934;52.690;6.184;2023-04-29T15:03:12;15.60;99.90
53053;DHT22;38934;52.690;6.184;2023-04-29T15:05:38;15.60;99.90
53053;DHT22;38934;52.690;6.184;2023-04-29T15:08:03;15.80;99.90
53053;DHT22;38934;52.690;6.184;2023-04-29T15:10:29;15.70;99.90
53053;DHT22;38934;52.690;6.184;2023-04-29T15:12:55;15.80;99.90
53053;DHT22;38934;52.690;6.184;2023-04-29T15:15:22;15.50;99.90
53053;DHT22;38934;52.690;6.184;2023-04-29T15:17:48;15.50;99.90
53053;DHT22;38934;52.690;6.184;2023-04-29T15:20:15;15.50;99.90
53053;DHT22;38934;52.690;6.184;2023-04-29T15:22:40;15.50;99.90
53053;DHT22;38934;52.690;6.184;2023-04-29T15:25:07;15.60;99.90
53053;DHT22;38934;52.690;6.184;2023-04-29T15:27:34;15.60;99.90
53053;DHT22;38934;52.690;6.184;2023-04-29T15:30:00;15.60;99.90
53053;DHT22;38934;52.690;6.184;2023-04-29T15:32:26;15.70;99.90
53053;DHT22;38934;52.690;6.184;2023-04-29T15:35:00;15.70;99.90
53053;DHT22;38934;52.690;6.184;2023-04-29T15:37:28;15.80;99.90
53053;DHT22;38934;52.690;6.184;2023-04-29T15:39:57;15.80;99.90
53053;DHT22;38934;52.690;6.184;2023-04-29T15:42:23;15.90;99.90
53053;DHT22;38934;52.690;6.184;2023-04-29T15:44:49;15.90;99.90
53053;DHT22;38934;52.690;6.184;2023-04-29T15:47:15;16.10;99.90
53053;DHT22;38934;52.690;6.184;2023-04-29T15:49:41;15.90;99.90
53053;DHT22;38934;52.690;6.184;2023-04-29T15:52:07;15.90;97.30
53053;DHT22;38934;52.690;6.184;2023-04-29T15:54:33;15.90;99.90
53053;DHT22;38934;52.690;6.184;2023-04-29T15:56:59;15.80;99.90